sensor_id;sensor_type;location;lat;lon;timestamp;P1;durP1;ratioP1;P2;durP2;ratioP2
57047;SDS011;42934;54.294;18.598;2024-03-08T00:00:43;43.00;;;21.25;;
57047;SDS011;42934;54.294;18.598;2024-03-08T00:03:36;45.65;;;21.05;;
57047;SDS011;42934;54.294;18.598;2024-03-08T00:06:07;45.58;;;21.48;;
57047;SDS011;42934;54.294;18.598;2024-03-08T00:08:36;44.58;;;22.15;;
57047;SDS011;42934;54.294;18.598;2024-03-08T00:11:05;46.80;;;20.98;;
57047;SDS011;42934;54.294;18.598;2024-03-08T00:13:35;44.75;;;22.13;;
57047;SDS011;42934;54.294;18.598;2024-03-08T00:16:04;52.72;;;24.42;;
57047;SDS011;42934;54.294;18.598;2024-03-08T00:18:36;48.03;;;22.45;;
57047;SDS011;42934;54.294;18.598;2024-03-08T00:21:05;52.05;;;22.58;;
57047;SDS011;42934;54.294;18.598;2024-03-08T00:23:36;43.45;;;21.00;;
57047;SDS011;42934;54.294;18.598;2024-03-08T00:26:06;40.83;;;20.48;;
57047;SDS011;42934;54.294;18.598;2024-03-08T00:28:35;43.47;;;20.88;;
57047;SDS011;42934;54.294;18.598;2024-03-08T00:31:04;42.83;;;20.23;;
57047;SDS011;42934;54.294;18.598;2024-03-08T00:33:33;44.35;;;20.33;;
57047;SDS011;42934;54.294;18.598;2024-03-08T00:36:04;35.10;;;18.00;;
57047;SDS011;42934;54.294;18.598;2024-03-08T00:38:34;47.72;;;20.63;;
57047;SDS011;42934;54.294;18.598;2024-03-08T00:41:03;40.85;;;20.65;;
57047;SDS011;42934;54.294;18.598;2024-03-08T00:43:33;37.20;;;19.17;;
57047;SDS011;42934;54.294;18.598;2024-03-08T00:46:02;41.70;;;19.95;;
57047;SDS011;42934;54.294;18.598;2024-03-08T00:48:31;45.70;;;20.33;;
57047;SDS011;42934;54.294;18.598;2024-03-08T00:51:01;41.70;;;20.52;;
57047;SDS011;42934;54.294;18.598;2024-03-08T00:53:31;42.78;;;19.75;;
57047;SDS011;42934;54.294;18.598;2024-03-08T00:56:00;39.92;;;19.75;;
57047;SDS011;42934;54.294;18.598;2024-03-08T00:58:31;41.17;;;20.63;;
57047;SDS011;42934;54.294;18.598;2024-03-08T01:01:00;37.63;;;18.70;;
57047;SDS011;42934;54.294;18.598;2024-03-08T01:03:29;40.33;;;20.30;;
57047;SDS011;42934;54.294;18.598;2024-03-08T01:05:59;36.83;;;18.58;;
57047;SDS011;42934;54.294;18.598;2024-03-08T01:08:30;37.53;;;18.50;;
57047;SDS011;42934;54.294;18.598;2024-03-08T01:10:59;37.03;;;18.95;;
57047;SDS011;42934;54.294;18.598;2024-03-08T01:13:28;37.08;;;19.00;;
57047;SDS011;42934;54.294;18.598;2024-03-08T01:15:57;40.20;;;19.00;;
57047;SDS011;42934;54.294;18.598;2024-03-08T01:18:27;38.30;;;19.20;;
57047;SDS011;42934;54.294;18.598;2024-03-08T01:23:27;39.50;;;17.92;;
57047;SDS011;42934;54.294;18.598;2024-03-08T01:25:57;37.90;;;19.05;;
57047;SDS011;42934;54.294;18.598;2024-03-08T01:28:26;36.15;;;17.73;;
57047;SDS011;42934;54.294;18.598;2024-03-08T01:30:55;35.05;;;18.20;;
57047;SDS011;42934;54.294;18.598;2024-03-08T01:33:25;34.53;;;17.80;;
57047;SDS011;42934;54.294;18.598;2024-03-08T01:35:54;37.95;;;17.55;;
57047;SDS011;42934;54.294;18.598;2024-03-08T01:38:24;34.05;;;16.20;;
57047;SDS011;42934;54.294;18.598;2024-03-08T01:43:25;33.78;;;16.60;;
57047;SDS011;42934;54.294;18.598;2024-03-08T01:45:56;35.22;;;17.48;;
57047;SDS011;42934;54.294;18.598;2024-03-08T01:48:26;39.67;;;17.40;;
57047;SDS011;42934;54.294;18.598;2024-03-08T01:50:57;36.90;;;17.50;;
57047;SDS011;42934;54.294;18.598;2024-03-08T01:55:58;40.70;;;17.55;;
57047;SDS011;42934;54.294;18.598;2024-03-08T01:58:29;33.20;;;17.60;;
57047;SDS011;42934;54.294;18.598;2024-03-08T02:00:59;35.67;;;16.80;;
57047;SDS011;42934;54.294;18.598;2024-03-08T02:03:30;33.88;;;18.10;;
57047;SDS011;42934;54.294;18.598;2024-03-08T02:05:59;38.35;;;18.65;;
57047;SDS011;42934;54.294;18.598;2024-03-08T02:08:30;36.43;;;19.30;;
57047;SDS011;42934;54.294;18.598;2024-03-08T02:10:59;37.30;;;17.67;;
57047;SDS011;42934;54.294;18.598;2024-03-08T02:13:29;35.42;;;18.50;;
57047;SDS011;42934;54.294;18.598;2024-03-08T02:15:59;35.83;;;17.42;;
57047;SDS011;42934;54.294;18.598;2024-03-08T02:18:29;41.20;;;17.88;;
57047;SDS011;42934;54.294;18.598;2024-03-08T02:21:00;38.70;;;17.42;;
57047;SDS011;42934;54.294;18.598;2024-03-08T02:23:31;34.10;;;17.75;;
57047;SDS011;42934;54.294;18.598;2024-03-08T02:31:00;33.53;;;16.40;;
57047;SDS011;42934;54.294;18.598;2024-03-08T02:33:35;32.50;;;16.35;;
57047;SDS011;42934;54.294;18.598;2024-03-08T02:36:06;34.13;;;16.40;;
57047;SDS011;42934;54.294;18.598;2024-03-08T02:38:35;29.05;;;15.98;;
57047;SDS011;42934;54.294;18.598;2024-03-08T02:41:04;32.15;;;16.52;;
57047;SDS011;42934;54.294;18.598;2024-03-08T02:43:34;31.25;;;16.15;;
57047;SDS011;42934;54.294;18.598;2024-03-08T02:46:03;29.95;;;15.52;;
57047;SDS011;42934;54.294;18.598;2024-03-08T02:48:34;29.55;;;15.73;;
57047;SDS011;42934;54.294;18.598;2024-03-08T02:51:03;37.70;;;17.38;;
57047;SDS011;42934;54.294;18.598;2024-03-08T02:53:34;32.00;;;16.95;;
57047;SDS011;42934;54.294;18.598;2024-03-08T02:56:04;34.17;;;16.08;;
57047;SDS011;42934;54.294;18.598;2024-03-08T02:58:35;27.65;;;14.95;;
57047;SDS011;42934;54.294;18.598;2024-03-08T03:01:04;31.60;;;15.88;;
57047;SDS011;42934;54.294;18.598;2024-03-08T03:03:34;31.90;;;15.82;;
57047;SDS011;42934;54.294;18.598;2024-03-08T03:06:03;36.80;;;16.85;;
57047;SDS011;42934;54.294;18.598;2024-03-08T03:08:35;27.05;;;15.10;;
57047;SDS011;42934;54.294;18.598;2024-03-08T03:11:05;32.92;;;16.15;;
57047;SDS011;42934;54.294;18.598;2024-03-08T03:13:34;32.50;;;16.00;;
57047;SDS011;42934;54.294;18.598;2024-03-08T03:16:04;34.63;;;15.05;;
57047;SDS011;42934;54.294;18.598;2024-03-08T03:21:03;29.95;;;14.18;;
57047;SDS011;42934;54.294;18.598;2024-03-08T03:23:34;31.60;;;15.98;;
57047;SDS011;42934;54.294;18.598;2024-03-08T03:26:04;29.42;;;15.77;;
57047;SDS011;42934;54.294;18.598;2024-03-08T03:28:34;28.50;;;15.40;;
57047;SDS011;42934;54.294;18.598;2024-03-08T03:31:07;32.75;;;16.23;;
57047;SDS011;42934;54.294;18.598;2024-03-08T03:33:41;28.70;;;14.60;;
57047;SDS011;42934;54.294;18.598;2024-03-08T03:36:13;35.38;;;16.15;;
57047;SDS011;42934;54.294;18.598;2024-03-08T03:38:48;37.08;;;16.42;;
57047;SDS011;42934;54.294;18.598;2024-03-08T03:41:22;35.17;;;16.20;;
57047;SDS011;42934;54.294;18.598;2024-03-08T03:43:58;36.47;;;17.02;;
57047;SDS011;42934;54.294;18.598;2024-03-08T03:46:27;31.58;;;16.40;;
57047;SDS011;42934;54.294;18.598;2024-03-08T03:49:03;34.88;;;17.92;;
57047;SDS011;42934;54.294;18.598;2024-03-08T03:51:39;34.80;;;16.90;;
57047;SDS011;42934;54.294;18.598;2024-03-08T03:54:17;34.10;;;16.25;;
57047;SDS011;42934;54.294;18.598;2024-03-08T03:59:26;33.33;;;16.33;;
57047;SDS011;42934;54.294;18.598;2024-03-08T04:01:55;34.00;;;16.52;;
57047;SDS011;42934;54.294;18.598;2024-03-08T04:04:24;35.08;;;17.23;;
57047;SDS011;42934;54.294;18.598;2024-03-08T04:06:54;34.42;;;17.45;;
57047;SDS011;42934;54.294;18.598;2024-03-08T04:09:24;31.52;;;16.23;;
57047;SDS011;42934;54.294;18.598;2024-03-08T04:11:53;33.42;;;18.13;;
57047;SDS011;42934;54.294;18.598;2024-03-08T04:14:23;35.90;;;17.02;;
57047;SDS011;42934;54.294;18.598;2024-03-08T04:16:53;34.13;;;17.07;;
57047;SDS011;42934;54.294;18.598;2024-03-08T04:19:22;40.97;;;18.15;;
57047;SDS011;42934;54.294;18.598;2024-03-08T04:21:54;41.30;;;18.17;;
57047;SDS011;42934;54.294;18.598;2024-03-08T04:24:24;42.03;;;18.00;;
57047;SDS011;42934;54.294;18.598;2024-03-08T04:26:52;43.22;;;18.98;;
57047;SDS011;42934;54.294;18.598;2024-03-08T04:29:22;42.28;;;17.65;;
57047;SDS011;42934;54.294;18.598;2024-03-08T04:31:51;41.05;;;18.77;;
57047;SDS011;42934;54.294;18.598;2024-03-08T04:34:21;41.72;;;16.60;;
57047;SDS011;42934;54.294;18.598;2024-03-08T04:36:50;39.60;;;17.00;;
57047;SDS011;42934;54.294;18.598;2024-03-08T04:39:21;34.60;;;16.33;;
57047;SDS011;42934;54.294;18.598;2024-03-08T04:41:50;33.60;;;16.27;;
57047;SDS011;42934;54.294;18.598;2024-03-08T04:44:21;32.30;;;14.73;;
57047;SDS011;42934;54.294;18.598;2024-03-08T04:46:52;34.13;;;14.63;;
57047;SDS011;42934;54.294;18.598;2024-03-08T04:49:21;36.80;;;15.18;;
57047;SDS011;42934;54.294;18.598;2024-03-08T04:51:50;35.15;;;15.50;;
57047;SDS011;42934;54.294;18.598;2024-03-08T04:54:21;30.73;;;15.02;;
57047;SDS011;42934;54.294;18.598;2024-03-08T04:56:50;33.63;;;15.77;;
57047;SDS011;42934;54.294;18.598;2024-03-08T04:59:20;36.33;;;14.82;;
57047;SDS011;42934;54.294;18.598;2024-03-08T05:01:49;30.65;;;15.13;;
57047;SDS011;42934;54.294;18.598;2024-03-08T05:04:18;29.40;;;14.45;;
57047;SDS011;42934;54.294;18.598;2024-03-08T05:06:47;29.50;;;14.10;;
57047;SDS011;42934;54.294;18.598;2024-03-08T05:09:16;30.27;;;13.68;;
57047;SDS011;42934;54.294;18.598;2024-03-08T05:11:47;27.33;;;13.48;;
57047;SDS011;42934;54.294;18.598;2024-03-08T05:14:17;30.77;;;14.48;;
57047;SDS011;42934;54.294;18.598;2024-03-08T05:16:47;30.38;;;14.27;;
57047;SDS011;42934;54.294;18.598;2024-03-08T05:19:17;25.33;;;13.32;;
57047;SDS011;42934;54.294;18.598;2024-03-08T05:21:47;28.55;;;13.73;;
57047;SDS011;42934;54.294;18.598;2024-03-08T05:24:17;29.20;;;13.20;;
57047;SDS011;42934;54.294;18.598;2024-03-08T05:26:48;26.50;;;12.23;;
57047;SDS011;42934;54.294;18.598;2024-03-08T05:29:17;24.05;;;11.57;;
57047;SDS011;42934;54.294;18.598;2024-03-08T05:31:47;23.35;;;11.98;;
57047;SDS011;42934;54.294;18.598;2024-03-08T05:34:17;22.98;;;11.25;;
57047;SDS011;42934;54.294;18.598;2024-03-08T05:36:48;27.73;;;11.73;;
57047;SDS011;42934;54.294;18.598;2024-03-08T05:39:18;23.48;;;11.40;;
57047;SDS011;42934;54.294;18.598;2024-03-08T05:41:49;22.90;;;10.98;;
57047;SDS011;42934;54.294;18.598;2024-03-08T05:44:18;25.05;;;11.63;;
57047;SDS011;42934;54.294;18.598;2024-03-08T05:46:47;22.05;;;10.40;;
57047;SDS011;42934;54.294;18.598;2024-03-08T05:49:17;28.25;;;11.38;;
57047;SDS011;42934;54.294;18.598;2024-03-08T05:54:17;22.52;;;10.40;;
57047;SDS011;42934;54.294;18.598;2024-03-08T05:56:51;24.45;;;10.43;;
57047;SDS011;42934;54.294;18.598;2024-03-08T05:59:21;23.95;;;10.30;;
57047;SDS011;42934;54.294;18.598;2024-03-08T06:01:51;23.42;;;10.63;;
57047;SDS011;42934;54.294;18.598;2024-03-08T06:04:20;24.45;;;10.15;;
57047;SDS011;42934;54.294;18.598;2024-03-08T06:06:49;24.55;;;10.88;;
57047;SDS011;42934;54.294;18.598;2024-03-08T06:09:22;22.05;;;10.43;;
57047;SDS011;42934;54.294;18.598;2024-03-08T06:11:53;22.10;;;10.07;;
57047;SDS011;42934;54.294;18.598;2024-03-08T06:14:24;24.85;;;10.85;;
57047;SDS011;42934;54.294;18.598;2024-03-08T06:16:53;24.63;;;10.98;;
57047;SDS011;42934;54.294;18.598;2024-03-08T06:19:22;23.15;;;10.35;;
57047;SDS011;42934;54.294;18.598;2024-03-08T06:21:51;20.77;;;9.68;;
57047;SDS011;42934;54.294;18.598;2024-03-08T06:24:20;21.95;;;10.77;;
57047;SDS011;42934;54.294;18.598;2024-03-08T06:26:49;27.95;;;12.18;;
57047;SDS011;42934;54.294;18.598;2024-03-08T06:29:21;23.90;;;11.57;;
57047;SDS011;42934;54.294;18.598;2024-03-08T06:34:23;30.38;;;11.50;;
57047;SDS011;42934;54.294;18.598;2024-03-08T06:36:52;23.90;;;11.50;;
57047;SDS011;42934;54.294;18.598;2024-03-08T06:39:27;32.63;;;12.68;;
57047;SDS011;42934;54.294;18.598;2024-03-08T06:41:58;30.80;;;11.88;;
57047;SDS011;42934;54.294;18.598;2024-03-08T06:44:29;31.50;;;13.27;;
57047;SDS011;42934;54.294;18.598;2024-03-08T06:46:59;29.27;;;12.00;;
57047;SDS011;42934;54.294;18.598;2024-03-08T06:49:28;67.23;;;25.60;;
57047;SDS011;42934;54.294;18.598;2024-03-08T06:51:58;54.05;;;21.92;;
57047;SDS011;42934;54.294;18.598;2024-03-08T06:54:27;64.60;;;26.08;;
57047;SDS011;42934;54.294;18.598;2024-03-08T06:56:56;59.53;;;23.60;;
57047;SDS011;42934;54.294;18.598;2024-03-08T06:59:26;58.20;;;24.07;;
57047;SDS011;42934;54.294;18.598;2024-03-08T07:01:56;57.63;;;26.02;;
57047;SDS011;42934;54.294;18.598;2024-03-08T07:04:26;42.38;;;17.70;;
57047;SDS011;42934;54.294;18.598;2024-03-08T07:06:56;41.22;;;15.50;;
57047;SDS011;42934;54.294;18.598;2024-03-08T07:09:25;29.08;;;14.60;;
57047;SDS011;42934;54.294;18.598;2024-03-08T07:11:54;29.25;;;13.73;;
57047;SDS011;42934;54.294;18.598;2024-03-08T07:14:24;35.53;;;16.92;;
57047;SDS011;42934;54.294;18.598;2024-03-08T07:16:53;36.15;;;16.73;;
57047;SDS011;42934;54.294;18.598;2024-03-08T07:19:23;32.78;;;15.77;;
57047;SDS011;42934;54.294;18.598;2024-03-08T07:21:52;29.98;;;14.07;;
57047;SDS011;42934;54.294;18.598;2024-03-08T07:24:22;29.55;;;13.90;;
57047;SDS011;42934;54.294;18.598;2024-03-08T07:27:05;25.08;;;12.88;;
57047;SDS011;42934;54.294;18.598;2024-03-08T07:29:35;30.85;;;14.05;;
57047;SDS011;42934;54.294;18.598;2024-03-08T07:32:04;29.27;;;14.80;;
57047;SDS011;42934;54.294;18.598;2024-03-08T07:34:46;31.35;;;15.07;;
57047;SDS011;42934;54.294;18.598;2024-03-08T07:37:17;32.58;;;16.08;;
57047;SDS011;42934;54.294;18.598;2024-03-08T07:42:16;28.77;;;14.52;;
57047;SDS011;42934;54.294;18.598;2024-03-08T07:44:45;26.73;;;14.27;;
57047;SDS011;42934;54.294;18.598;2024-03-08T07:47:15;28.45;;;14.15;;
57047;SDS011;42934;54.294;18.598;2024-03-08T07:49:49;30.70;;;14.27;;
57047;SDS011;42934;54.294;18.598;2024-03-08T07:54:47;28.48;;;14.02;;
57047;SDS011;42934;54.294;18.598;2024-03-08T07:57:16;26.52;;;14.10;;
57047;SDS011;42934;54.294;18.598;2024-03-08T07:59:46;27.10;;;13.93;;
57047;SDS011;42934;54.294;18.598;2024-03-08T08:02:16;30.20;;;14.57;;
57047;SDS011;42934;54.294;18.598;2024-03-08T08:04:45;31.65;;;15.45;;
57047;SDS011;42934;54.294;18.598;2024-03-08T08:07:16;25.70;;;13.50;;
57047;SDS011;42934;54.294;18.598;2024-03-08T08:09:45;26.42;;;14.13;;
57047;SDS011;42934;54.294;18.598;2024-03-08T08:12:14;22.45;;;12.68;;
57047;SDS011;42934;54.294;18.598;2024-03-08T08:14:43;29.35;;;13.65;;
57047;SDS011;42934;54.294;18.598;2024-03-08T08:17:13;27.90;;;14.25;;
57047;SDS011;42934;54.294;18.598;2024-03-08T08:19:42;32.03;;;13.77;;
57047;SDS011;42934;54.294;18.598;2024-03-08T08:22:11;26.73;;;13.57;;
57047;SDS011;42934;54.294;18.598;2024-03-08T08:24:42;25.77;;;12.77;;
57047;SDS011;42934;54.294;18.598;2024-03-08T08:27:11;25.02;;;12.82;;
57047;SDS011;42934;54.294;18.598;2024-03-08T08:29:41;24.33;;;12.35;;
57047;SDS011;42934;54.294;18.598;2024-03-08T08:32:12;23.17;;;13.13;;
57047;SDS011;42934;54.294;18.598;2024-03-08T08:34:43;27.45;;;13.95;;
57047;SDS011;42934;54.294;18.598;2024-03-08T08:37:13;27.42;;;13.43;;
57047;SDS011;42934;54.294;18.598;2024-03-08T08:39:47;26.45;;;13.65;;
57047;SDS011;42934;54.294;18.598;2024-03-08T08:42:18;30.15;;;14.52;;
57047;SDS011;42934;54.294;18.598;2024-03-08T08:44:47;26.73;;;13.73;;
57047;SDS011;42934;54.294;18.598;2024-03-08T08:47:18;27.27;;;13.65;;
57047;SDS011;42934;54.294;18.598;2024-03-08T08:49:48;24.23;;;12.85;;
57047;SDS011;42934;54.294;18.598;2024-03-08T08:52:18;23.45;;;13.80;;
57047;SDS011;42934;54.294;18.598;2024-03-08T08:54:48;26.55;;;12.85;;
57047;SDS011;42934;54.294;18.598;2024-03-08T08:57:17;27.75;;;13.85;;
57047;SDS011;42934;54.294;18.598;2024-03-08T08:59:47;28.38;;;14.10;;
57047;SDS011;42934;54.294;18.598;2024-03-08T09:02:16;28.63;;;13.10;;
57047;SDS011;42934;54.294;18.598;2024-03-08T09:04:48;26.92;;;13.00;;
57047;SDS011;42934;54.294;18.598;2024-03-08T09:07:17;21.25;;;12.18;;
57047;SDS011;42934;54.294;18.598;2024-03-08T09:09:46;30.40;;;12.45;;
57047;SDS011;42934;54.294;18.598;2024-03-08T09:14:46;25.10;;;12.27;;
57047;SDS011;42934;54.294;18.598;2024-03-08T09:17:15;26.33;;;11.65;;
57047;SDS011;42934;54.294;18.598;2024-03-08T09:19:47;23.48;;;12.73;;
57047;SDS011;42934;54.294;18.598;2024-03-08T09:22:16;25.00;;;12.50;;
57047;SDS011;42934;54.294;18.598;2024-03-08T09:24:46;26.52;;;11.57;;
57047;SDS011;42934;54.294;18.598;2024-03-08T09:27:16;22.42;;;11.88;;
57047;SDS011;42934;54.294;18.598;2024-03-08T09:29:46;24.48;;;11.18;;
57047;SDS011;42934;54.294;18.598;2024-03-08T09:32:15;21.95;;;10.85;;
57047;SDS011;42934;54.294;18.598;2024-03-08T09:34:44;22.60;;;11.35;;
57047;SDS011;42934;54.294;18.598;2024-03-08T09:37:13;22.58;;;11.85;;
57047;SDS011;42934;54.294;18.598;2024-03-08T09:39:44;21.98;;;12.02;;
57047;SDS011;42934;54.294;18.598;2024-03-08T09:42:14;25.92;;;11.75;;
57047;SDS011;42934;54.294;18.598;2024-03-08T09:44:44;24.10;;;11.25;;
57047;SDS011;42934;54.294;18.598;2024-03-08T09:47:14;26.77;;;11.70;;
57047;SDS011;42934;54.294;18.598;2024-03-08T09:49:43;23.33;;;11.15;;
57047;SDS011;42934;54.294;18.598;2024-03-08T09:52:12;18.70;;;10.95;;
57047;SDS011;42934;54.294;18.598;2024-03-08T09:54:43;22.35;;;11.02;;
57047;SDS011;42934;54.294;18.598;2024-03-08T09:57:12;23.42;;;10.85;;
57047;SDS011;42934;54.294;18.598;2024-03-08T09:59:47;23.08;;;11.18;;
57047;SDS011;42934;54.294;18.598;2024-03-08T10:04:48;22.98;;;10.65;;
57047;SDS011;42934;54.294;18.598;2024-03-08T10:07:20;22.55;;;10.10;;
57047;SDS011;42934;54.294;18.598;2024-03-08T10:09:51;20.90;;;10.40;;
57047;SDS011;42934;54.294;18.598;2024-03-08T10:12:22;21.15;;;9.93;;
57047;SDS011;42934;54.294;18.598;2024-03-08T10:14:54;27.15;;;10.18;;
57047;SDS011;42934;54.294;18.598;2024-03-08T10:17:24;17.27;;;9.55;;
57047;SDS011;42934;54.294;18.598;2024-03-08T10:19:53;23.05;;;10.35;;
57047;SDS011;42934;54.294;18.598;2024-03-08T10:22:22;18.40;;;10.40;;
57047;SDS011;42934;54.294;18.598;2024-03-08T10:24:53;18.83;;;9.82;;
57047;SDS011;42934;54.294;18.598;2024-03-08T10:27:23;26.02;;;10.07;;
57047;SDS011;42934;54.294;18.598;2024-03-08T10:29:54;20.80;;;9.60;;
57047;SDS011;42934;54.294;18.598;2024-03-08T10:32:24;16.80;;;7.57;;
57047;SDS011;42934;54.294;18.598;2024-03-08T10:34:54;14.15;;;7.40;;
57047;SDS011;42934;54.294;18.598;2024-03-08T10:37:24;12.05;;;6.53;;
57047;SDS011;42934;54.294;18.598;2024-03-08T10:39:59;15.00;;;7.70;;
57047;SDS011;42934;54.294;18.598;2024-03-08T10:42:40;13.10;;;7.07;;
57047;SDS011;42934;54.294;18.598;2024-03-08T10:45:18;14.20;;;7.22;;
57047;SDS011;42934;54.294;18.598;2024-03-08T10:48:04;12.48;;;6.32;;
57047;SDS011;42934;54.294;18.598;2024-03-08T10:50:49;11.80;;;5.70;;
57047;SDS011;42934;54.294;18.598;2024-03-08T10:53:20;11.73;;;6.18;;
57047;SDS011;42934;54.294;18.598;2024-03-08T10:55:52;15.52;;;7.53;;
57047;SDS011;42934;54.294;18.598;2024-03-08T10:58:25;13.98;;;6.50;;
57047;SDS011;42934;54.294;18.598;2024-03-08T11:00:56;14.25;;;6.55;;
57047;SDS011;42934;54.294;18.598;2024-03-08T11:03:44;16.55;;;7.13;;
57047;SDS011;42934;54.294;18.598;2024-03-08T11:06:16;13.80;;;6.35;;
57047;SDS011;42934;54.294;18.598;2024-03-08T11:08:50;10.18;;;5.30;;
57047;SDS011;42934;54.294;18.598;2024-03-08T11:11:26;11.57;;;6.07;;
57047;SDS011;42934;54.294;18.598;2024-03-08T11:14:02;11.43;;;6.30;;
57047;SDS011;42934;54.294;18.598;2024-03-08T11:16:36;12.23;;;6.75;;
57047;SDS011;42934;54.294;18.598;2024-03-08T11:19:23;18.52;;;7.00;;
57047;SDS011;42934;54.294;18.598;2024-03-08T11:21:59;13.55;;;7.00;;
57047;SDS011;42934;54.294;18.598;2024-03-08T11:24:36;11.43;;;6.80;;
57047;SDS011;42934;54.294;18.598;2024-03-08T11:27:08;17.13;;;7.30;;
57047;SDS011;42934;54.294;18.598;2024-03-08T11:29:40;15.05;;;7.22;;
57047;SDS011;42934;54.294;18.598;2024-03-08T11:32:10;12.70;;;7.20;;
57047;SDS011;42934;54.294;18.598;2024-03-08T11:37:12;16.08;;;7.47;;
57047;SDS011;42934;54.294;18.598;2024-03-08T11:39:46;16.45;;;7.53;;
57047;SDS011;42934;54.294;18.598;2024-03-08T11:42:16;13.00;;;7.68;;
57047;SDS011;42934;54.294;18.598;2024-03-08T11:44:50;13.57;;;7.10;;
57047;SDS011;42934;54.294;18.598;2024-03-08T11:47:20;14.95;;;8.02;;
57047;SDS011;42934;54.294;18.598;2024-03-08T11:49:49;14.43;;;8.23;;
57047;SDS011;42934;54.294;18.598;2024-03-08T11:52:20;16.33;;;8.15;;
57047;SDS011;42934;54.294;18.598;2024-03-08T11:54:52;18.23;;;8.63;;
57047;SDS011;42934;54.294;18.598;2024-03-08T11:57:25;18.77;;;8.80;;
57047;SDS011;42934;54.294;18.598;2024-03-08T11:59:58;17.80;;;9.27;;
57047;SDS011;42934;54.294;18.598;2024-03-08T12:02:36;20.90;;;8.75;;
57047;SDS011;42934;54.294;18.598;2024-03-08T12:05:07;12.05;;;7.82;;
57047;SDS011;42934;54.294;18.598;2024-03-08T12:07:37;18.48;;;9.82;;
57047;SDS011;42934;54.294;18.598;2024-03-08T12:10:16;15.50;;;8.57;;
57047;SDS011;42934;54.294;18.598;2024-03-08T12:12:46;16.63;;;8.53;;
57047;SDS011;42934;54.294;18.598;2024-03-08T12:17:48;15.85;;;8.40;;
57047;SDS011;42934;54.294;18.598;2024-03-08T12:20:18;19.90;;;8.48;;
57047;SDS011;42934;54.294;18.598;2024-03-08T12:22:50;14.20;;;8.68;;
57047;SDS011;42934;54.294;18.598;2024-03-08T12:25:20;16.75;;;8.73;;
57047;SDS011;42934;54.294;18.598;2024-03-08T12:27:49;16.67;;;8.73;;
57047;SDS011;42934;54.294;18.598;2024-03-08T12:32:54;19.20;;;8.18;;
57047;SDS011;42934;54.294;18.598;2024-03-08T12:35:25;15.35;;;8.63;;
57047;SDS011;42934;54.294;18.598;2024-03-08T12:37:55;15.35;;;7.95;;
57047;SDS011;42934;54.294;18.598;2024-03-08T12:40:26;19.90;;;8.95;;
57047;SDS011;42934;54.294;18.598;2024-03-08T12:42:56;15.05;;;8.75;;
57047;SDS011;42934;54.294;18.598;2024-03-08T12:45:26;17.37;;;8.53;;
57047;SDS011;42934;54.294;18.598;2024-03-08T12:47:56;14.65;;;8.23;;
57047;SDS011;42934;54.294;18.598;2024-03-08T12:50:26;14.45;;;8.20;;
57047;SDS011;42934;54.294;18.598;2024-03-08T12:52:57;18.73;;;8.45;;
57047;SDS011;42934;54.294;18.598;2024-03-08T12:55:26;19.35;;;8.35;;
57047;SDS011;42934;54.294;18.598;2024-03-08T12:57:55;22.50;;;8.48;;
57047;SDS011;42934;54.294;18.598;2024-03-08T13:00:26;21.80;;;9.00;;
57047;SDS011;42934;54.294;18.598;2024-03-08T13:02:56;25.88;;;8.77;;
57047;SDS011;42934;54.294;18.598;2024-03-08T13:05:26;13.93;;;8.38;;
57047;SDS011;42934;54.294;18.598;2024-03-08T13:07:55;16.50;;;8.43;;
57047;SDS011;42934;54.294;18.598;2024-03-08T13:10:24;15.63;;;8.70;;
57047;SDS011;42934;54.294;18.598;2024-03-08T13:12:54;16.90;;;9.13;;
57047;SDS011;42934;54.294;18.598;2024-03-08T13:15:23;22.92;;;9.25;;
57047;SDS011;42934;54.294;18.598;2024-03-08T13:17:53;15.07;;;8.65;;
57047;SDS011;42934;54.294;18.598;2024-03-08T13:20:23;15.98;;;7.95;;
57047;SDS011;42934;54.294;18.598;2024-03-08T13:23:06;23.48;;;8.63;;
57047;SDS011;42934;54.294;18.598;2024-03-08T13:25:35;22.02;;;7.80;;
57047;SDS011;42934;54.294;18.598;2024-03-08T13:30:34;17.73;;;7.95;;
57047;SDS011;42934;54.294;18.598;2024-03-08T13:33:05;17.07;;;8.57;;
57047;SDS011;42934;54.294;18.598;2024-03-08T13:35:34;18.35;;;8.77;;
57047;SDS011;42934;54.294;18.598;2024-03-08T13:38:05;18.58;;;11.05;;
57047;SDS011;42934;54.294;18.598;2024-03-08T13:40:36;24.23;;;10.43;;
57047;SDS011;42934;54.294;18.598;2024-03-08T13:43:07;20.25;;;10.02;;
57047;SDS011;42934;54.294;18.598;2024-03-08T13:45:36;16.90;;;8.65;;
57047;SDS011;42934;54.294;18.598;2024-03-08T13:48:09;20.83;;;10.32;;
57047;SDS011;42934;54.294;18.598;2024-03-08T13:50:39;18.23;;;10.40;;
57047;SDS011;42934;54.294;18.598;2024-03-08T13:53:09;22.58;;;11.73;;
57047;SDS011;42934;54.294;18.598;2024-03-08T13:55:38;23.67;;;12.32;;
57047;SDS011;42934;54.294;18.598;2024-03-08T13:58:08;26.23;;;14.30;;
57047;SDS011;42934;54.294;18.598;2024-03-08T14:00:36;26.40;;;13.95;;
57047;SDS011;42934;54.294;18.598;2024-03-08T14:03:10;22.58;;;13.70;;
57047;SDS011;42934;54.294;18.598;2024-03-08T14:05:39;20.80;;;11.57;;
57047;SDS011;42934;54.294;18.598;2024-03-08T14:08:10;26.38;;;12.40;;
57047;SDS011;42934;54.294;18.598;2024-03-08T14:10:39;17.30;;;10.13;;
57047;SDS011;42934;54.294;18.598;2024-03-08T14:13:09;16.85;;;10.75;;
57047;SDS011;42934;54.294;18.598;2024-03-08T14:15:39;22.53;;;9.97;;
57047;SDS011;42934;54.294;18.598;2024-03-08T14:18:10;19.52;;;9.90;;
57047;SDS011;42934;54.294;18.598;2024-03-08T14:20:40;16.80;;;8.98;;
57047;SDS011;42934;54.294;18.598;2024-03-08T14:23:09;16.77;;;8.48;;
57047;SDS011;42934;54.294;18.598;2024-03-08T14:25:39;18.20;;;8.35;;
57047;SDS011;42934;54.294;18.598;2024-03-08T14:28:08;19.83;;;9.05;;
57047;SDS011;42934;54.294;18.598;2024-03-08T14:30:38;13.38;;;7.55;;
57047;SDS011;42934;54.294;18.598;2024-03-08T14:33:11;18.77;;;8.25;;
57047;SDS011;42934;54.294;18.598;2024-03-08T14:35:40;31.92;;;14.90;;
57047;SDS011;42934;54.294;18.598;2024-03-08T14:38:10;30.88;;;13.35;;
57047;SDS011;42934;54.294;18.598;2024-03-08T14:40:39;17.15;;;8.52;;
57047;SDS011;42934;54.294;18.598;2024-03-08T14:43:12;22.05;;;9.23;;
57047;SDS011;42934;54.294;18.598;2024-03-08T14:45:41;21.02;;;9.35;;
57047;SDS011;42934;54.294;18.598;2024-03-08T14:48:15;16.67;;;8.63;;
57047;SDS011;42934;54.294;18.598;2024-03-08T14:50:45;12.18;;;7.18;;
57047;SDS011;42934;54.294;18.598;2024-03-08T14:53:16;12.50;;;5.80;;
57047;SDS011;42934;54.294;18.598;2024-03-08T14:55:45;12.43;;;6.10;;
57047;SDS011;42934;54.294;18.598;2024-03-08T14:58:14;13.95;;;6.13;;
57047;SDS011;42934;54.294;18.598;2024-03-08T15:00:44;16.90;;;7.30;;
57047;SDS011;42934;54.294;18.598;2024-03-08T15:03:18;13.48;;;7.32;;
57047;SDS011;42934;54.294;18.598;2024-03-08T15:05:47;13.05;;;7.68;;
57047;SDS011;42934;54.294;18.598;2024-03-08T15:08:18;13.90;;;7.55;;
57047;SDS011;42934;54.294;18.598;2024-03-08T15:10:49;17.98;;;10.00;;
57047;SDS011;42934;54.294;18.598;2024-03-08T15:13:22;14.32;;;7.57;;
57047;SDS011;42934;54.294;18.598;2024-03-08T15:15:55;10.35;;;6.18;;